Time;durP1;ratioP1;P1;durP2;ratioP2;P2;SDS_P1;SDS_P2;PMS_P1;PMS_P2;Temp;Humidity;BMP_temperature;BMP_pressure;BME280_temperature;BME280_humidity;BME280_pressure;Samples;Min_cycle;Max_cycle;Signal;HPM_P1;HPM_P2
2023/04/06 00:01:07;;;;;;;1.10;1.10;;;3.70;99.90;;;;;;5016867;28;20510;-77
2023/04/06 00:03:33;;;;;;;1.10;1.10;;;3.80;99.90;;;;;;5038548;28;20040;-77
2023/04/06 00:05:59;;;;;;;1.15;1.15;;;3.80;99.90;;;;;;5035133;28;20040;-77
2023/04/06 00:08:26;;;;;;;1.10;1.10;;;3.80;99.90;;;;;;5039483;28;20084;-77
2023/04/06 00:10:52;;;;;;;1.10;1.10;;;3.70;99.90;;;;;;5033968;28;20577;-77
2023/04/06 00:13:17;;;;;;;1.20;1.20;;;3.70;99.90;;;;;;5034428;28;20037;-77
2023/04/06 00:15:43;;;;;;;1.10;1.10;;;3.80;99.90;;;;;;5032449;28;20041;-77
2023/04/06 00:18:09;;;;;;;1.10;1.10;;;3.70;99.90;;;;;;5030425;28;20127;-77
2023/04/06 00:20:35;;;;;;;1.08;1.08;;;3.70;99.90;;;;;;5014466;28;20427;-77
2023/04/06 00:23:00;;;;;;;1.10;1.10;;;3.60;99.90;;;;;;5031946;28;20068;-77
2023/04/06 00:25:26;;;;;;;1.23;1.23;;;3.80;99.90;;;;;;5035542;28;20048;-77
2023/04/06 00:27:52;;;;;;;1.20;1.20;;;3.60;99.90;;;;;;5030831;28;20033;-77
2023/04/06 00:30:18;;;;;;;1.10;1.10;;;3.70;99.90;;;;;;5033724;28;20064;-77
2023/04/06 00:32:43;;;;;;;1.20;1.20;;;3.60;99.90;;;;;;5034634;28;20045;-77
2023/04/06 00:35:10;;;;;;;1.20;1.20;;;3.60;99.90;;;;;;5019248;28;20159;-77
2023/04/06 00:37:35;;;;;;;1.15;1.15;;;3.50;99.90;;;;;;5032203;28;20130;-77
2023/04/06 00:40:01;;;;;;;1.20;1.20;;;3.50;99.90;;;;;;5036582;28;20091;-77
2023/04/06 00:42:28;;;;;;;1.10;1.10;;;3.50;99.90;;;;;;5041688;28;20482;-77
2023/04/06 00:44:55;;;;;;;1.30;1.30;;;3.50;99.90;;;;;;5038493;28;20041;-77
2023/04/06 00:47:22;;;;;;;1.10;1.10;;;3.50;99.90;;;;;;5035881;28;20141;-77
2023/04/06 00:49:48;;;;;;;1.20;1.20;;;3.50;99.90;;;;;;5019745;28;20049;-77
2023/04/06 00:52:15;;;;;;;1.10;1.10;;;3.50;99.90;;;;;;5042795;28;20102;-77
2023/04/06 00:54:41;;;;;;;1.20;1.20;;;3.30;99.90;;;;;;5038181;28;20129;-77
2023/04/06 00:57:06;;;;;;;1.20;1.20;;;3.40;99.90;;;;;;5014842;28;20482;-77
2023/04/06 00:59:32;;;;;;;1.20;1.20;;;3.30;99.90;;;;;;5037636;28;20059;-77
2023/04/06 01:01:58;;;;;;;1.20;1.20;;;3.40;99.90;;;;;;5034998;28;20036;-77
2023/04/06 01:04:24;;;;;;;1.20;1.20;;;3.40;99.90;;;;;;5039276;28;20123;-76
2023/04/06 01:06:50;;;;;;;1.23;1.23;;;3.40;99.90;;;;;;5038522;28;20160;-76
2023/04/06 01:09:17;;;;;;;1.20;1.20;;;3.30;99.90;;;;;;5023130;28;20041;-77
2023/04/06 01:11:43;;;;;;;1.20;1.20;;;3.30;99.90;;;;;;5042064;28;20044;-77
2023/04/06 01:14:08;;;;;;;1.20;1.20;;;3.20;99.90;;;;;;5039862;28;20045;-76
2023/04/06 01:16:35;;;;;;;1.20;1.20;;;3.20;99.90;;;;;;5022575;28;20084;-77
2023/04/06 01:19:01;;;;;;;1.10;1.10;;;3.20;99.90;;;;;;5038602;28;20065;-77
2023/04/06 01:21:26;;;;;;;1.20;1.20;;;3.20;99.90;;;;;;5041530;28;20965;-77
2023/04/06 01:23:52;;;;;;;1.30;1.30;;;3.10;99.90;;;;;;5040305;28;20458;-77
2023/04/06 01:26:18;;;;;;;1.20;1.20;;;3.00;99.90;;;;;;5038004;28;20040;-77
2023/04/06 01:28:44;;;;;;;1.13;1.13;;;3.00;99.90;;;;;;5039096;28;20114;-76
2023/04/06 01:31:11;;;;;;;1.20;1.20;;;2.90;99.90;;;;;;5022738;28;20119;-77
2023/04/06 01:33:37;;;;;;;1.10;1.10;;;2.80;99.90;;;;;;5038808;28;20045;-76
2023/04/06 01:36:03;;;;;;;1.10;1.10;;;2.90;99.90;;;;;;5034041;28;20049;-77
2023/04/06 01:38:29;;;;;;;1.20;1.20;;;2.90;99.90;;;;;;5021886;28;20668;-77
2023/04/06 01:40:55;;;;;;;1.10;1.10;;;3.00;99.90;;;;;;5021223;28;20118;-77
2023/04/06 01:43:21;;;;;;;1.10;1.10;;;3.00;99.90;;;;;;5037970;28;20132;-77
2023/04/06 01:45:47;;;;;;;1.10;1.10;;;3.10;99.90;;;;;;5040658;28;20155;-77
2023/04/06 01:48:12;;;;;;;1.20;1.20;;;3.10;99.90;;;;;;5022430;28;20051;-77
2023/04/06 01:50:38;;;;;;;1.00;1.00;;;3.00;99.90;;;;;;5038456;28;20155;-77
2023/04/06 01:53:04;;;;;;;1.10;1.10;;;2.90;99.90;;;;;;5037602;28;20055;-77
2023/04/06 01:55:30;;;;;;;1.13;1.13;;;2.90;99.90;;;;;;5038399;28;20072;-77
2023/04/06 01:57:55;;;;;;;1.15;1.15;;;2.80;99.90;;;;;;5037022;28;20482;-76
2023/04/06 02:00:22;;;;;;;1.20;1.20;;;2.90;99.90;;;;;;5038840;28;20045;-77
2023/04/06 02:02:47;;;;;;;1.10;1.10;;;2.90;99.90;;;;;;5020875;28;20151;-76
2023/04/06 02:05:13;;;;;;;1.30;1.30;;;2.80;99.90;;;;;;5037357;28;20557;-77
2023/04/06 02:07:39;;;;;;;1.30;1.30;;;2.80;99.90;;;;;;5020428;28;20061;-77
2023/04/06 02:10:10;;;;;;;1.20;1.20;;;2.90;99.90;;;;;;5020168;28;20105;-77
2023/04/06 02:12:36;;;;;;;1.20;1.20;;;2.80;99.90;;;;;;5034076;28;20046;-77
2023/04/06 02:15:03;;;;;;;1.20;1.20;;;2.70;99.90;;;;;;5034346;28;20037;-77
2023/04/06 02:17:28;;;;;;;1.30;1.30;;;2.70;99.90;;;;;;5019415;28;20135;-77
2023/04/06 02:19:54;;;;;;;1.30;1.30;;;2.70;99.90;;;;;;5019749;28;20127;-76
2023/04/06 02:22:20;;;;;;;1.50;1.40;;;2.70;99.90;;;;;;5037145;28;20397;-77
2023/04/06 02:24:46;;;;;;;1.42;1.40;;;2.60;99.90;;;;;;5020171;28;20632;-77
2023/04/06 02:27:14;;;;;;;1.50;1.40;;;2.50;99.90;;;;;;5036294;28;20536;-76
2023/04/06 02:29:40;;;;;;;1.60;1.50;;;2.50;99.90;;;;;;5018688;28;20072;-77
2023/04/06 02:32:06;;;;;;;1.70;1.60;;;2.40;99.90;;;;;;5039668;28;20076;-76
2023/04/06 02:34:31;;;;;;;1.60;1.50;;;2.50;99.90;;;;;;5020056;28;20045;-76
2023/04/06 02:36:57;;;;;;;1.58;1.48;;;2.40;99.90;;;;;;5037750;28;20613;-77
2023/04/06 02:39:23;;;;;;;1.80;1.70;;;2.40;99.90;;;;;;5035142;28;20037;-77
2023/04/06 02:41:48;;;;;;;1.80;1.70;;;2.40;99.90;;;;;;5038905;28;20128;-77
2023/04/06 02:44:14;;;;;;;1.80;1.70;;;2.40;99.90;;;;;;5036329;28;20075;-76
2023/04/06 02:46:40;;;;;;;1.80;1.70;;;2.30;99.90;;;;;;5017464;28;20052;-77
2023/04/06 02:49:05;;;;;;;1.95;1.85;;;2.30;99.90;;;;;;5038310;28;20077;-77
2023/04/06 02:51:31;;;;;;;1.80;1.70;;;2.30;99.90;;;;;;5038641;28;20128;-77
2023/04/06 02:53:57;;;;;;;1.98;1.88;;;2.30;99.90;;;;;;5036986;28;20120;-76
2023/04/06 02:56:23;;;;;;;2.00;1.90;;;2.30;99.90;;;;;;5033974;28;20123;-77
2023/04/06 02:58:48;;;;;;;1.80;1.70;;;2.20;99.90;;;;;;5038733;28;20130;-77
2023/04/06 03:01:14;;;;;;;1.90;1.80;;;2.20;99.90;;;;;;5035099;28;20094;-77
2023/04/06 03:03:40;;;;;;;1.70;1.60;;;2.20;99.90;;;;;;5037736;28;20761;-77
2023/04/06 03:06:06;;;;;;;1.60;1.50;;;2.10;99.90;;;;;;5035041;28;20199;-77
2023/04/06 03:08:31;;;;;;;1.80;1.70;;;2.00;99.90;;;;;;5036146;28;20095;-77
2023/04/06 03:10:57;;;;;;;1.80;1.70;;;2.00;99.90;;;;;;5037089;28;20575;-77
2023/04/06 03:13:23;;;;;;;1.80;1.70;;;2.00;99.90;;;;;;5036190;28;20068;-77
2023/04/06 03:15:49;;;;;;;1.80;1.70;;;2.10;99.90;;;;;;5034867;28;20674;-77
2023/04/06 03:18:14;;;;;;;1.70;1.60;;;2.00;99.90;;;;;;5017977;28;20125;-77
2023/04/06 03:20:40;;;;;;;1.80;1.70;;;2.00;99.90;;;;;;5022697;28;20401;-77
2023/04/06 03:23:06;;;;;;;1.80;1.70;;;1.90;99.90;;;;;;5039001;28;20037;-76
2023/04/06 03:25:31;;;;;;;1.70;1.60;;;1.90;99.90;;;;;;5035520;28;20041;-77
2023/04/06 03:27:57;;;;;;;1.70;1.60;;;1.70;99.90;;;;;;5019697;28;20636;-77
2023/04/06 03:30:23;;;;;;;1.73;1.63;;;1.50;99.90;;;;;;5036142;28;20578;-77
2023/04/06 03:32:48;;;;;;;1.50;1.40;;;1.30;99.90;;;;;;5019738;28;20477;-77
2023/04/06 03:35:14;;;;;;;1.40;1.40;;;1.20;99.90;;;;;;5020325;28;20432;-77
2023/04/06 03:37:40;;;;;;;1.50;1.40;;;1.30;99.90;;;;;;5019487;28;20083;-76
2023/04/06 03:40:06;;;;;;;1.60;1.50;;;1.40;99.90;;;;;;5016917;28;20048;-76
2023/04/06 03:42:32;;;;;;;1.75;1.65;;;1.40;99.90;;;;;;5004442;28;20100;-77
2023/04/06 03:44:58;;;;;;;1.80;1.70;;;1.40;99.90;;;;;;5016430;28;20488;-77
2023/04/06 03:47:24;;;;;;;1.73;1.63;;;1.50;99.90;;;;;;5002826;28;20131;-77
2023/04/06 03:49:50;;;;;;;1.70;1.60;;;1.40;99.90;;;;;;5020778;28;20131;-77
2023/04/06 03:52:16;;;;;;;1.73;1.63;;;1.40;99.90;;;;;;5019938;28;20037;-77
2023/04/06 03:54:41;;;;;;;1.70;1.60;;;1.30;99.90;;;;;;5019118;28;20041;-77
2023/04/06 03:57:07;;;;;;;1.77;1.67;;;1.40;99.90;;;;;;5017969;28;20040;-77
2023/04/06 03:59:33;;;;;;;1.70;1.60;;;1.40;99.90;;;;;;5039477;28;20424;-76
2023/04/06 04:01:59;;;;;;;1.70;1.60;;;1.40;99.90;;;;;;5041806;28;20041;-77
2023/04/06 04:04:24;;;;;;;1.30;1.30;;;1.40;99.90;;;;;;5029034;28;20777;-77
2023/04/06 04:06:50;;;;;;;1.50;1.40;;;1.40;99.90;;;;;;5018767;28;20389;-76
2023/04/06 04:09:15;;;;;;;1.50;1.40;;;1.30;99.90;;;;;;5019623;28;20052;-77
2023/04/06 04:11:41;;;;;;;1.50;1.40;;;1.30;99.90;;;;;;5018159;28;20045;-76
2023/04/06 04:14:07;;;;;;;1.60;1.50;;;1.30;99.90;;;;;;5003993;28;20068;-77
2023/04/06 04:16:32;;;;;;;1.50;1.40;;;1.30;99.90;;;;;;5037659;28;20056;-76
2023/04/06 04:18:58;;;;;;;1.60;1.50;;;1.20;99.90;;;;;;5022808;28;20482;-77
2023/04/06 04:21:25;;;;;;;1.70;1.60;;;1.30;99.90;;;;;;5039894;28;20036;-77
2023/04/06 04:23:52;;;;;;;1.60;1.50;;;1.20;99.90;;;;;;5023050;28;20045;-77
2023/04/06 04:26:18;;;;;;;1.20;1.20;;;1.30;99.90;;;;;;5021043;28;20544;-77
2023/04/06 04:28:44;;;;;;;1.50;1.40;;;1.20;99.90;;;;;;5023539;28;20041;-77
2023/04/06 04:31:10;;;;;;;1.50;1.40;;;1.10;99.90;;;;;;5022431;28;20133;-77
2023/04/06 04:33:35;;;;;;;1.40;1.40;;;1.10;99.90;;;;;;5022084;28;20127;-77
2023/04/06 04:36:01;;;;;;;1.30;1.30;;;1.10;99.90;;;;;;5038650;28;20049;-76
2023/04/06 04:38:27;;;;;;;1.30;1.30;;;1.00;99.90;;;;;;5021059;28;20642;-76
2023/04/06 04:40:53;;;;;;;1.30;1.30;;;1.00;99.90;;;;;;5039118;28;20037;-77
2023/04/06 04:43:18;;;;;;;1.40;1.40;;;1.10;99.90;;;;;;5023824;28;20128;-77
2023/04/06 04:45:44;;;;;;;1.50;1.40;;;1.00;99.90;;;;;;5039888;28;20049;-76
2023/04/06 04:48:10;;;;;;;1.30;1.30;;;1.20;99.90;;;;;;5021722;28;20041;-76
2023/04/06 04:50:35;;;;;;;1.50;1.40;;;1.10;99.90;;;;;;5032583;28;20033;-77
2023/04/06 04:53:01;;;;;;;1.50;1.40;;;1.10;99.90;;;;;;5022629;28;20044;-76
2023/04/06 04:55:29;;;;;;;1.20;1.20;;;1.10;99.90;;;;;;5024104;28;20057;-76
2023/04/06 04:57:54;;;;;;;1.15;1.15;;;1.10;99.90;;;;;;5038900;28;20048;-76
2023/04/06 05:00:20;;;;;;;1.20;1.20;;;1.10;99.90;;;;;;5024117;28;20033;-76
2023/04/06 05:02:46;;;;;;;1.10;1.10;;;1.10;99.90;;;;;;5024874;28;20056;-76
2023/04/06 05:05:11;;;;;;;1.08;1.08;;;1.10;99.90;;;;;;5001456;28;20032;-76
2023/04/06 05:07:37;;;;;;;1.15;1.15;;;1.20;99.90;;;;;;4992091;28;20060;-77
2023/04/06 05:10:03;;;;;;;1.10;1.10;;;1.10;99.90;;;;;;5020328;28;20254;-77
2023/04/06 05:12:29;;;;;;;1.00;1.00;;;1.20;99.90;;;;;;5005361;28;20049;-77
2023/04/06 05:14:54;;;;;;;1.00;1.00;;;1.20;99.90;;;;;;5004635;28;20076;-77
2023/04/06 05:17:20;;;;;;;1.00;1.00;;;1.30;99.90;;;;;;5002028;28;20557;-77
2023/04/06 05:19:46;;;;;;;1.00;1.00;;;1.50;99.90;;;;;;4998814;28;20148;-77
2023/04/06 05:22:14;;;;;;;1.00;1.00;;;1.50;99.90;;;;;;5008814;28;20049;-77
2023/04/06 05:24:40;;;;;;;1.20;1.20;;;1.50;99.90;;;;;;4987721;28;20124;-77
2023/04/06 05:27:06;;;;;;;1.20;1.20;;;1.70;99.90;;;;;;5021086;28;20072;-77
2023/04/06 05:29:31;;;;;;;1.20;1.20;;;2.30;99.90;;;;;;5032982;28;20064;-77
2023/04/06 05:31:57;;;;;;;1.30;1.30;;;3.00;99.90;;;;;;5023389;28;20144;-75
2023/04/06 05:34:23;;;;;;;1.15;1.15;;;3.20;99.90;;;;;;5021262;28;20064;-77
2023/04/06 05:36:48;;;;;;;1.30;1.30;;;3.50;99.90;;;;;;5036738;28;20036;-77
2023/04/06 05:39:14;;;;;;;1.35;1.35;;;3.90;99.90;;;;;;5021607;28;20128;-77
2023/04/06 05:41:40;;;;;;;1.30;1.30;;;3.90;99.90;;;;;;5019943;28;20124;-77
2023/04/06 05:44:06;;;;;;;1.30;1.30;;;3.80;99.90;;;;;;5041442;28;20041;-77
2023/04/06 05:46:31;;;;;;;1.20;1.20;;;4.20;99.90;;;;;;5021016;28;20057;-77
2023/04/06 05:48:57;;;;;;;1.30;1.30;;;4.40;99.90;;;;;;5028383;28;20155;-77
2023/04/06 05:51:23;;;;;;;1.20;1.20;;;5.10;99.90;;;;;;5030466;28;20145;-77
2023/04/06 05:53:48;;;;;;;1.20;1.20;;;5.10;99.90;;;;;;5031383;28;20044;-77
2023/04/06 05:56:14;;;;;;;1.30;1.30;;;4.30;99.90;;;;;;5033914;28;20037;-77
2023/04/06 05:58:40;;;;;;;1.30;1.30;;;4.00;99.90;;;;;;5022719;28;20530;-77
2023/04/06 06:01:05;;;;;;;1.30;1.30;;;3.70;99.90;;;;;;5039213;28;20179;-77
2023/04/06 06:03:31;;;;;;;1.30;1.30;;;3.70;99.90;;;;;;5011441;28;20486;-77
2023/04/06 06:06:03;;;;;;;1.30;1.30;;;3.70;99.90;;;;;;5035364;28;20051;-77
2023/04/06 06:08:29;;;;;;;1.20;1.20;;;3.70;99.90;;;;;;5025502;28;20057;-77
2023/04/06 06:10:56;;;;;;;1.30;1.30;;;3.80;99.90;;;;;;5014738;28;20633;-77
2023/04/06 06:13:22;;;;;;;1.30;1.30;;;3.80;99.90;;;;;;5012053;28;20528;-77
2023/04/06 06:15:49;;;;;;;1.50;1.40;;;4.00;99.90;;;;;;5020319;28;20116;-77
2023/04/06 06:18:14;;;;;;;1.20;1.20;;;4.00;99.90;;;;;;5014425;28;20050;-77
2023/04/06 06:20:40;;;;;;;1.30;1.30;;;4.00;99.90;;;;;;5025382;28;20049;-76
2023/04/06 06:23:06;;;;;;;1.20;1.20;;;4.20;99.90;;;;;;5033803;28;20370;-78
2023/04/06 06:25:32;;;;;;;1.30;1.30;;;4.10;99.90;;;;;;5039225;28;20052;-77
2023/04/06 06:27:59;;;;;;;1.23;1.23;;;4.30;99.90;;;;;;5018703;28;20209;-77
2023/04/06 06:30:25;;;;;;;1.20;1.20;;;4.40;99.90;;;;;;5021099;28;20041;-77
2023/04/06 06:32:51;;;;;;;1.10;1.10;;;4.40;99.90;;;;;;5008243;28;20049;-77
2023/04/06 06:35:17;;;;;;;1.20;1.20;;;4.40;99.90;;;;;;5033690;28;20404;-77
2023/04/06 06:37:42;;;;;;;1.20;1.20;;;4.60;99.90;;;;;;5011160;28;20067;-77
2023/04/06 06:40:10;;;;;;;1.20;1.20;;;4.50;99.90;;;;;;5016245;28;20077;-77
2023/04/06 06:42:36;;;;;;;1.10;1.10;;;4.90;99.90;;;;;;5003036;28;20080;-77
2023/04/06 06:45:02;;;;;;;1.20;1.20;;;4.90;99.90;;;;;;5032358;28;20040;-77
2023/04/06 06:47:28;;;;;;;1.10;1.10;;;5.10;99.90;;;;;;5034330;28;20091;-78
2023/04/06 06:49:53;;;;;;;1.10;1.10;;;5.30;99.90;;;;;;5019591;28;20040;-77
2023/04/06 06:52:19;;;;;;;0.98;0.98;;;5.40;99.90;;;;;;5019694;28;20045;-77
2023/04/06 06:54:45;;;;;;;1.10;1.10;;;5.40;99.90;;;;;;5035989;28;20359;-77
2023/04/06 06:57:10;;;;;;;1.10;1.10;;;5.60;99.90;;;;;;4994494;28;20048;-77
2023/04/06 06:59:36;;;;;;;1.00;1.00;;;5.80;99.90;;;;;;5021336;28;20056;-77
2023/04/06 07:02:02;;;;;;;1.10;1.10;;;6.00;99.90;;;;;;5015958;28;20040;-77
2023/04/06 07:04:27;;;;;;;1.10;1.10;;;6.10;99.90;;;;;;5019166;28;20218;-77
2023/04/06 07:06:53;;;;;;;1.00;1.00;;;6.20;99.90;;;;;;5017810;28;20591;-77
2023/04/06 07:09:19;;;;;;;0.93;0.93;;;6.30;99.90;;;;;;5025341;28;20103;-77
2023/04/06 07:11:44;;;;;;;0.98;0.98;;;6.40;99.90;;;;;;5037793;28;20041;-77
2023/04/06 07:14:11;;;;;;;1.00;1.00;;;6.50;99.90;;;;;;5019593;28;20553;-77
2023/04/06 07:16:37;;;;;;;0.85;0.85;;;6.70;99.90;;;;;;5017171;28;20049;-77
2023/04/06 07:19:02;;;;;;;1.00;1.00;;;6.50;99.90;;;;;;5018193;28;20079;-76
2023/04/06 07:21:28;;;;;;;0.90;0.90;;;6.80;99.90;;;;;;5020518;28;20198;-77
2023/04/06 07:23:54;;;;;;;1.00;1.00;;;7.00;99.90;;;;;;5017844;28;20048;-78
2023/04/06 07:26:20;;;;;;;1.00;1.00;;;7.20;99.90;;;;;;5018138;28;20045;-77
2023/04/06 07:28:45;;;;;;;0.90;0.90;;;7.30;99.90;;;;;;5021139;28;20126;-76
2023/04/06 07:31:11;;;;;;;0.90;0.90;;;7.30;99.90;;;;;;5038165;28;20540;-78
2023/04/06 07:33:37;;;;;;;0.90;0.90;;;7.10;99.90;;;;;;5020432;28;20360;-78
2023/04/06 07:36:02;;;;;;;0.90;0.90;;;7.40;99.90;;;;;;5036515;28;20052;-78
2023/04/06 07:38:28;;;;;;;0.90;0.90;;;7.10;99.90;;;;;;5016656;28;20088;-78
2023/04/06 07:40:54;;;;;;;0.90;0.90;;;7.60;99.90;;;;;;5021828;28;20049;-78
2023/04/06 07:43:19;;;;;;;0.90;0.90;;;7.00;99.90;;;;;;5018821;28;20068;-78
2023/04/06 07:45:45;;;;;;;0.90;0.90;;;7.40;99.90;;;;;;5018054;28;20147;-78
2023/04/06 07:48:11;;;;;;;0.90;0.90;;;7.90;99.90;;;;;;5017495;28;20049;-78
2023/04/06 07:50:36;;;;;;;0.90;0.90;;;7.70;99.90;;;;;;5037469;28;20041;-77
2023/04/06 07:53:02;;;;;;;0.98;0.98;;;8.00;99.90;;;;;;5041248;28;20398;-78
2023/04/06 07:55:28;;;;;;;0.90;0.90;;;8.40;99.90;;;;;;5023532;28;20049;-78
2023/04/06 07:57:54;;;;;;;0.90;0.90;;;8.40;99.90;;;;;;5022123;28;20037;-78
2023/04/06 08:00:20;;;;;;;0.90;0.90;;;8.70;99.90;;;;;;5034931;28;20072;-78
2023/04/06 08:02:46;;;;;;;0.70;0.70;;;8.60;99.90;;;;;;5018786;28;20032;-78
2023/04/06 08:05:11;;;;;;;0.80;0.80;;;8.40;99.90;;;;;;5034436;28;20063;-79
2023/04/06 08:07:37;;;;;;;0.80;0.80;;;8.60;99.90;;;;;;5033569;28;20041;-78
2023/04/06 08:10:04;;;;;;;0.85;0.85;;;8.60;99.90;;;;;;4998211;28;20049;-78
2023/04/06 08:12:30;;;;;;;0.80;0.80;;;8.70;99.90;;;;;;5020341;28;20059;-78
2023/04/06 08:14:56;;;;;;;0.80;0.80;;;9.20;99.90;;;;;;5022239;28;20053;-78
2023/04/06 08:17:22;;;;;;;0.80;0.80;;;9.30;99.90;;;;;;5019621;28;20131;-78
2023/04/06 08:19:48;;;;;;;0.80;0.80;;;9.80;99.90;;;;;;5035023;28;20131;-78
2023/04/06 08:22:14;;;;;;;0.90;0.90;;;9.80;99.90;;;;;;5023047;28;20774;-78
2023/04/06 08:24:39;;;;;;;0.80;0.80;;;10.00;99.90;;;;;;5040434;28;20574;-78
2023/04/06 08:27:05;;;;;;;0.88;0.88;;;9.40;99.90;;;;;;5020479;28;20033;-78
2023/04/06 08:29:31;;;;;;;0.90;0.90;;;10.00;99.90;;;;;;5040093;28;20473;-78
2023/04/06 08:31:57;;;;;;;0.90;0.90;;;9.90;99.90;;;;;;5020164;28;20040;-78
2023/04/06 08:34:22;;;;;;;0.90;0.90;;;10.20;99.90;;;;;;5033227;28;20041;-78
2023/04/06 08:36:48;;;;;;;0.90;0.90;;;9.80;99.90;;;;;;5039993;28;20049;-78
2023/04/06 08:39:14;;;;;;;0.88;0.88;;;10.50;99.90;;;;;;5022081;28;20049;-80
2023/04/06 08:41:42;;;;;;;0.80;0.80;;;10.90;99.90;;;;;;5023260;28;20106;-79
2023/04/06 08:44:08;;;;;;;0.93;0.93;;;11.00;99.90;;;;;;5022974;28;20428;-79
2023/04/06 08:46:34;;;;;;;0.90;0.90;;;10.90;99.90;;;;;;5022142;28;20045;-79
2023/04/06 08:49:02;;;;;;;0.90;0.90;;;11.40;99.90;;;;;;5021420;28;20528;-79
2023/04/06 08:51:30;;;;;;;0.90;0.90;;;11.30;99.90;;;;;;5023912;28;20556;-79
2023/04/06 08:53:59;;;;;;;0.90;0.90;;;11.70;99.90;;;;;;5019412;28;20095;-79
2023/04/06 08:56:27;;;;;;;1.00;1.00;;;11.90;99.90;;;;;;5021381;28;20053;-79
2023/04/06 08:58:54;;;;;;;0.88;0.88;;;11.90;99.90;;;;;;5021112;28;20074;-79
2023/04/06 09:01:26;;;;;;;0.88;0.88;;;12.30;99.90;;;;;;5022447;28;20510;-79
2023/04/06 09:03:56;;;;;;;0.90;0.90;;;12.40;99.90;;;;;;5035959;28;20140;-79
2023/04/06 09:06:22;;;;;;;0.80;0.80;;;12.90;99.90;;;;;;5017284;28;20045;-79
2023/04/06 09:08:48;;;;;;;0.80;0.80;;;12.80;99.90;;;;;;5021280;28;20052;-79
2023/04/06 09:11:14;;;;;;;0.90;0.90;;;13.10;99.90;;;;;;5039461;28;20498;-78
2023/04/06 09:13:48;;;;;;;0.80;0.80;;;13.10;99.90;;;;;;5037699;28;20056;-80
2023/04/06 09:16:14;;;;;;;0.90;0.90;;;13.10;99.90;;;;;;5017787;28;20056;-80
2023/04/06 09:18:40;;;;;;;0.90;0.90;;;13.10;99.90;;;;;;5020106;28;20138;-80
2023/04/06 09:21:06;;;;;;;0.90;0.90;;;13.20;99.90;;;;;;5024883;28;20055;-79
2023/04/06 09:23:33;;;;;;;0.80;0.80;;;13.20;99.90;;;;;;5021554;28;20067;-78
2023/04/06 09:26:14;;;;;;;0.80;0.80;;;13.20;99.90;;;;;;5016748;28;20530;-80
2023/04/06 09:28:43;;;;;;;0.80;0.80;;;13.10;99.90;;;;;;5018615;28;20071;-79
2023/04/06 09:31:09;;;;;;;0.80;0.80;;;12.90;99.90;;;;;;5022015;28;20072;-79
2023/04/06 09:33:41;;;;;;;0.80;0.80;;;13.00;99.90;;;;;;5021985;28;20053;-79
2023/04/06 09:36:09;;;;;;;0.80;0.80;;;13.20;99.90;;;;;;5020807;28;20075;-79
2023/04/06 09:38:37;;;;;;;0.77;0.77;;;13.20;99.90;;;;;;5019447;28;20053;-80
2023/04/06 09:41:02;;;;;;;0.80;0.80;;;13.00;99.90;;;;;;5018459;28;20060;-79
2023/04/06 09:43:29;;;;;;;0.80;0.80;;;13.10;99.90;;;;;;5021728;28;20657;-79
2023/04/06 09:45:57;;;;;;;0.80;0.80;;;13.10;99.90;;;;;;5020592;28;20048;-79
2023/04/06 09:48:25;;;;;;;0.82;0.82;;;13.00;99.90;;;;;;5018928;28;20048;-78
2023/04/06 09:50:57;;;;;;;0.80;0.80;;;13.10;99.90;;;;;;5022669;28;20041;-78
2023/04/06 09:53:29;;;;;;;0.70;0.70;;;13.10;99.90;;;;;;5020690;28;20041;-79
2023/04/06 09:56:01;;;;;;;0.80;0.80;;;13.20;99.90;;;;;;5020786;28;20517;-78
2023/04/06 09:58:27;;;;;;;0.70;0.70;;;12.90;99.90;;;;;;5018073;28;20501;-78
2023/04/06 10:01:11;;;;;;;0.80;0.80;;;13.20;99.90;;;;;;5020890;28;20167;-78
2023/04/06 10:03:49;;;;;;;0.70;0.70;;;12.90;99.90;;;;;;5036955;28;20053;-79
2023/04/06 10:06:17;;;;;;;0.80;0.80;;;13.00;99.90;;;;;;5019113;28;20041;-78
2023/04/06 10:08:45;;;;;;;0.70;0.70;;;13.10;99.90;;;;;;5019975;28;20164;-78
2023/04/06 10:11:11;;;;;;;0.70;0.70;;;13.10;99.90;;;;;;5019192;28;20111;-78
2023/04/06 10:13:37;;;;;;;0.70;0.70;;;13.20;99.90;;;;;;5037812;28;20045;-79
2023/04/06 10:16:04;;;;;;;0.70;0.70;;;13.40;99.90;;;;;;5031370;28;20076;-77
2023/04/06 10:18:30;;;;;;;0.75;0.75;;;13.20;99.90;;;;;;5020174;28;20574;-79
2023/04/06 10:21:29;;;;;;;0.70;0.70;;;13.60;99.90;;;;;;5037522;28;20033;-79
2023/04/06 10:23:59;;;;;;;0.70;0.70;;;13.80;99.90;;;;;;4992675;28;20048;-78
2023/04/06 10:26:25;;;;;;;0.70;0.70;;;13.60;99.90;;;;;;5014168;28;20045;-79
2023/04/06 10:28:51;;;;;;;0.85;0.85;;;13.80;99.90;;;;;;5019456;28;20037;-79
2023/04/06 10:31:26;;;;;;;0.70;0.70;;;14.00;99.90;;;;;;5018219;28;20207;-80
2023/04/06 10:33:59;;;;;;;0.70;0.70;;;14.10;99.90;;;;;;5018960;28;20049;-77
2023/04/06 10:36:27;;;;;;;0.60;0.60;;;14.10;99.90;;;;;;5037871;28;20048;-78
2023/04/06 10:39:05;;;;;;;0.60;0.60;;;14.00;99.90;;;;;;5038258;28;20041;-79
2023/04/06 10:41:44;;;;;;;0.60;0.60;;;13.70;99.90;;;;;;5037870;28;20041;-80
2023/04/06 10:44:21;;;;;;;0.70;0.70;;;14.20;99.50;;;;;;5021572;28;20083;-76
2023/04/06 10:47:00;;;;;;;0.60;0.60;;;14.40;99.90;;;;;;5019470;28;20464;-78
2023/04/06 10:49:26;;;;;;;0.70;0.70;;;14.50;99.60;;;;;;5027939;28;20045;-78
2023/04/06 10:51:56;;;;;;;0.63;0.63;;;14.60;99.30;;;;;;5015313;28;20580;-79
2023/04/06 10:54:25;;;;;;;0.60;0.60;;;14.80;99.00;;;;;;5035382;28;20040;-80
2023/04/06 10:56:51;;;;;;;0.70;0.70;;;14.90;98.00;;;;;;4996793;28;20041;-79
2023/04/06 10:59:24;;;;;;;0.65;0.65;;;15.10;99.70;;;;;;5035350;28;20513;-79
2023/04/06 11:01:50;;;;;;;0.60;0.60;;;15.60;98.70;;;;;;5030958;28;20044;-80
2023/04/06 11:04:20;;;;;;;0.50;0.50;;;15.20;98.80;;;;;;5010113;28;20068;-79
2023/04/06 11:06:48;;;;;;;0.50;0.50;;;15.70;98.00;;;;;;5029952;28;20493;-79
2023/04/06 11:09:27;;;;;;;0.50;0.50;;;15.30;97.20;;;;;;5014129;28;20120;-79
2023/04/06 11:11:54;;;;;;;0.50;0.50;;;15.30;98.30;;;;;;5015283;28;20508;-79
2023/04/06 11:14:20;;;;;;;0.50;0.50;;;14.90;97.50;;;;;;5016983;28;20045;-78
2023/04/06 11:16:49;;;;;;;0.63;0.60;;;14.90;98.10;;;;;;5018177;28;20693;-78
2023/04/06 11:19:14;;;;;;;0.50;0.50;;;15.00;98.20;;;;;;5032897;28;20088;-80
2023/04/06 11:21:48;;;;;;;0.50;0.50;;;14.80;95.50;;;;;;5020370;28;20041;-78
2023/04/06 11:24:21;;;;;;;0.50;0.50;;;15.00;97.20;;;;;;5034308;28;20492;-79
2023/04/06 11:26:50;;;;;;;0.50;0.50;;;15.00;99.30;;;;;;4999085;28;20064;-78
2023/04/06 11:29:23;;;;;;;0.50;0.50;;;15.40;98.10;;;;;;5032028;28;20041;-79
2023/04/06 11:31:53;;;;;;;0.50;0.50;;;15.50;97.60;;;;;;5018732;28;20131;-78
2023/04/06 11:34:23;;;;;;;0.55;0.55;;;15.40;95.70;;;;;;5035991;28;20512;-78
2023/04/06 11:36:55;;;;;;;0.60;0.60;;;14.90;95.60;;;;;;5017610;28;20513;-80
2023/04/06 11:39:23;;;;;;;0.52;0.52;;;15.10;96.20;;;;;;5017300;28;20506;-79
2023/04/06 11:42:00;;;;;;;0.60;0.60;;;15.10;96.80;;;;;;5019018;28;20056;-79
2023/04/06 11:44:38;;;;;;;0.60;0.60;;;15.00;95.20;;;;;;5018699;28;20820;-80
2023/04/06 11:47:06;;;;;;;0.60;0.60;;;15.00;94.20;;;;;;5035090;28;20040;-79
2023/04/06 11:49:33;;;;;;;0.50;0.50;;;14.90;95.80;;;;;;5015887;28;20049;-79
2023/04/06 11:52:00;;;;;;;0.50;0.50;;;14.80;95.70;;;;;;5029171;28;20791;-78
2023/04/06 11:54:36;;;;;;;0.50;0.50;;;14.70;95.00;;;;;;5015863;28;20160;-79
2023/04/06 11:57:04;;;;;;;0.50;0.50;;;14.80;95.00;;;;;;5002647;28;20119;-79
2023/04/06 11:59:31;;;;;;;0.50;0.50;;;14.70;95.20;;;;;;4997639;28;20041;-78
2023/04/06 12:01:57;;;;;;;0.55;0.55;;;14.70;95.60;;;;;;5014193;28;20681;-79
2023/04/06 12:04:23;;;;;;;0.60;0.60;;;14.70;95.40;;;;;;4991375;28;20622;-79
2023/04/06 12:06:49;;;;;;;0.70;0.70;;;14.50;95.30;;;;;;4996587;28;20041;-80
2023/04/06 12:09:15;;;;;;;0.70;0.70;;;14.80;95.70;;;;;;5003695;28;20041;-79
2023/04/06 12:11:40;;;;;;;0.70;0.70;;;14.80;95.80;;;;;;4979729;28;20827;-79
2023/04/06 12:14:07;;;;;;;0.70;0.70;;;14.80;94.10;;;;;;4999659;28;20029;-80
2023/04/06 12:16:34;;;;;;;0.70;0.70;;;14.70;94.90;;;;;;5009990;28;20048;-76
2023/04/06 12:19:00;;;;;;;0.60;0.60;;;14.50;94.60;;;;;;5010130;28;20095;-80
2023/04/06 12:21:28;;;;;;;0.60;0.60;;;14.70;94.60;;;;;;5019931;28;20494;-78
2023/04/06 12:23:54;;;;;;;0.63;0.63;;;14.80;94.50;;;;;;5003148;28;20144;-79
2023/04/06 12:26:23;;;;;;;0.70;0.70;;;14.70;94.30;;;;;;5011512;28;20052;-79
2023/04/06 12:28:49;;;;;;;0.60;0.60;;;14.80;94.60;;;;;;5002282;28;20041;-79
2023/04/06 12:31:19;;;;;;;0.80;0.80;;;14.80;93.90;;;;;;5014196;28;20052;-78
2023/04/06 12:33:51;;;;;;;0.80;0.80;;;14.80;93.60;;;;;;5020058;28;20580;-79
2023/04/06 12:36:19;;;;;;;0.85;0.85;;;14.80;94.80;;;;;;5003979;28;20052;-79
2023/04/06 12:38:48;;;;;;;0.82;0.82;;;14.90;95.50;;;;;;5005553;28;20053;-79
2023/04/06 12:41:14;;;;;;;0.80;0.80;;;15.20;94.90;;;;;;5018021;28;20740;-78
2023/04/06 12:43:41;;;;;;;0.80;0.80;;;15.20;94.40;;;;;;4995267;28;20041;-79
2023/04/06 12:46:06;;;;;;;0.80;0.80;;;15.00;93.40;;;;;;5002517;28;20037;-79
2023/04/06 12:48:32;;;;;;;0.90;0.90;;;15.20;96.00;;;;;;5026872;28;20115;-79
2023/04/06 12:51:00;;;;;;;1.00;1.00;;;14.90;93.50;;;;;;5025203;28;20042;-79